createdAt,value
2016-08-24T00:00:06.804Z,0
2016-08-24T00:00:51.907Z,0
2016-08-24T00:02:06.857Z,0
2016-08-24T00:03:51.981Z,0
2016-08-24T00:04:52.015Z,0
2016-08-24T00:05:52.029Z,0
2016-08-24T00:06:52.062Z,0
2016-08-24T00:07:52.084Z,0
2016-08-24T00:08:52.106Z,0
2016-08-24T00:09:52.143Z,0
2016-08-24T00:10:52.164Z,0
2016-08-24T00:11:52.191Z,0
2016-08-24T00:12:52.229Z,0
2016-08-24T00:14:07.167Z,0
2016-08-24T00:15:07.197Z,0
2016-08-24T00:15:52.335Z,0
2016-08-24T00:17:07.247Z,0
2016-08-24T00:18:07.266Z,0
2016-08-24T00:18:52.365Z,0
2016-08-24T00:19:52.393Z,0
2016-08-24T00:20:52.422Z,0
2016-08-24T00:21:52.455Z,0
2016-08-24T00:22:52.480Z,0
2016-08-24T00:23:52.504Z,0
2016-08-24T00:25:07.457Z,0
2016-08-24T00:25:52.556Z,0
2016-08-24T00:26:52.582Z,0
2016-08-24T00:27:52.606Z,0
2016-08-24T00:28:52.628Z,0
2016-08-24T00:29:52.659Z,0
2016-08-24T00:31:07.607Z,0
2016-08-24T00:31:52.703Z,0
2016-08-24T00:32:52.736Z,0
2016-08-24T00:33:52.762Z,0
2016-08-24T00:34:52.783Z,0
2016-08-24T00:35:52.823Z,0
2016-08-24T00:36:52.837Z,0
2016-08-24T00:37:52.866Z,0
2016-08-24T00:38:52.891Z,0
2016-08-24T00:39:52.935Z,0
2016-08-24T00:40:52.944Z,0
2016-08-24T00:41:52.981Z,0
2016-08-24T00:43:53.020Z,0
2016-08-24T00:45:07.972Z,0
2016-08-24T00:45:53.080Z,0
2016-08-24T00:46:53.101Z,0
2016-08-24T00:47:53.125Z,0
2016-08-24T00:49:08.073Z,0
2016-08-24T00:49:53.201Z,0
2016-08-24T00:50:53.204Z,0
2016-08-24T00:52:08.218Z,0
2016-08-24T00:52:53.260Z,0
2016-08-24T00:54:53.360Z,0
2016-08-24T00:55:53.331Z,0
2016-08-24T00:56:53.362Z,0
2016-08-24T00:57:53.392Z,0
2016-08-24T00:59:08.345Z,0
2016-08-24T00:59:53.441Z,0
2016-08-24T01:00:53.466Z,0
2016-08-24T01:01:53.490Z,0
2016-08-24T01:03:08.535Z,0
2016-08-24T01:05:53.597Z,0
2016-08-24T01:06:53.628Z,0
2016-08-24T01:07:53.646Z,0
2016-08-24T01:08:53.674Z,0
2016-08-24T01:09:54.399Z,0
2016-08-24T01:11:53.750Z,0
2016-08-24T01:12:53.781Z,0
2016-08-24T01:14:08.730Z,0
2016-08-24T01:14:53.830Z,0
2016-08-24T01:15:53.849Z,0
2016-08-24T01:16:53.892Z,0
2016-08-24T01:17:53.908Z,0
2016-08-24T01:18:53.929Z,0
2016-08-24T01:20:08.883Z,0
2016-08-24T01:21:08.906Z,0
2016-08-24T01:21:54.023Z,0
2016-08-24T01:22:54.045Z,0
2016-08-24T01:23:54.067Z,0
2016-08-24T01:25:09.022Z,0
2016-08-24T01:25:54.129Z,0
2016-08-24T01:27:54.169Z,0
2016-08-24T01:28:54.196Z,0
2016-08-24T01:29:54.217Z,0
2016-08-24T01:30:54.939Z,0
2016-08-24T01:31:54.280Z,0
2016-08-24T01:32:54.297Z,0
2016-08-24T01:33:54.328Z,0
2016-08-24T01:34:54.353Z,0
2016-08-24T01:35:54.372Z,0
2016-08-24T01:37:09.332Z,0
2016-08-24T01:37:54.431Z,0
2016-08-24T01:38:54.453Z,0
2016-08-24T01:39:54.485Z,0
2016-08-24T01:41:54.533Z,0
2016-08-24T01:42:54.561Z,0
2016-08-24T01:43:54.578Z,0
2016-08-24T01:44:54.631Z,0
2016-08-24T01:45:54.639Z,0
2016-08-24T01:46:54.662Z,0
2016-08-24T01:47:54.701Z,0
2016-08-24T01:48:54.713Z,0
2016-08-24T01:49:54.744Z,0
2016-08-24T01:50:54.766Z,0
2016-08-24T01:53:09.739Z,0
2016-08-24T01:53:54.893Z,0
2016-08-24T01:54:54.919Z,0
2016-08-24T01:55:54.896Z,0
2016-08-24T01:56:54.919Z,0
2016-08-24T01:57:54.942Z,0
2016-08-24T01:58:54.971Z,0
2016-08-24T01:59:55.006Z,0
2016-08-24T02:00:55.036Z,0
2016-08-24T02:01:55.053Z,0
2016-08-24T02:02:55.083Z,0
2016-08-24T02:03:55.108Z,0
2016-08-24T02:04:55.189Z,0
2016-08-24T02:06:10.084Z,0
2016-08-24T02:06:55.192Z,0
2016-08-24T02:07:55.209Z,0
2016-08-24T02:08:55.232Z,0
2016-08-24T02:10:55.287Z,0
2016-08-24T02:11:55.309Z,0
2016-08-24T02:12:55.340Z,0
2016-08-24T02:13:55.366Z,0
2016-08-24T02:14:55.385Z,0
2016-08-24T02:15:55.422Z,0
2016-08-24T02:16:55.450Z,0
2016-08-24T02:17:55.516Z,0
2016-08-24T02:18:55.512Z,0
2016-08-24T02:19:55.523Z,0
2016-08-24T02:21:10.471Z,0
2016-08-24T02:21:55.569Z,0
2016-08-24T02:22:55.596Z,0
2016-08-24T02:24:10.542Z,0
2016-08-24T02:24:55.666Z,0
2016-08-24T02:25:55.677Z,0
2016-08-24T02:27:55.726Z,0
2016-08-24T02:28:55.749Z,0
2016-08-24T02:29:55.775Z,0
2016-08-24T02:30:55.810Z,0
2016-08-24T02:31:55.827Z,0
2016-08-24T02:32:55.865Z,0
2016-08-24T02:33:55.888Z,0
2016-08-24T02:34:55.910Z,0
2016-08-24T02:35:55.929Z,0
2016-08-24T02:36:55.957Z,0
2016-08-24T02:37:56.002Z,0
2016-08-24T02:38:56.015Z,0
2016-08-24T02:40:10.961Z,0
2016-08-24T02:41:10.987Z,0
2016-08-24T02:41:56.087Z,0
2016-08-24T02:42:56.118Z,0
2016-08-24T02:43:56.151Z,0
2016-08-24T02:44:56.177Z,0
2016-08-24T02:45:56.193Z,0
2016-08-24T02:46:56.228Z,0
2016-08-24T02:47:56.245Z,0
2016-08-24T02:48:56.277Z,0
2016-08-24T02:49:56.317Z,0
2016-08-24T02:50:56.325Z,0
2016-08-24T02:51:56.355Z,0
2016-08-24T02:53:11.306Z,0
2016-08-24T02:53:56.404Z,0
2016-08-24T02:55:11.399Z,0
2016-08-24T02:56:11.378Z,0
2016-08-24T02:56:56.483Z,0
2016-08-24T02:57:56.557Z,0
2016-08-24T02:58:56.537Z,0
2016-08-24T02:59:56.552Z,0
2016-08-24T03:00:56.581Z,0
2016-08-24T03:01:56.618Z,0
2016-08-24T03:03:56.668Z,0
2016-08-24T03:04:57.382Z,0
2016-08-24T03:05:56.706Z,0
2016-08-24T03:06:56.742Z,0
2016-08-24T03:07:56.771Z,0
2016-08-24T03:08:56.787Z,0
2016-08-24T03:09:56.871Z,0
2016-08-24T03:10:56.845Z,0
2016-08-24T03:12:11.798Z,0
2016-08-24T03:12:56.892Z,0
2016-08-24T03:13:56.928Z,0
2016-08-24T03:14:56.953Z,0
2016-08-24T03:15:56.980Z,0
2016-08-24T03:16:56.999Z,0
2016-08-24T03:17:57.020Z,0
2016-08-24T03:18:57.107Z,0
2016-08-24T03:19:57.076Z,0
2016-08-24T03:21:57.130Z,0
2016-08-24T03:22:57.160Z,0
2016-08-24T03:23:57.179Z,0
2016-08-24T03:24:57.210Z,0
2016-08-24T03:25:57.231Z,0
2016-08-24T03:28:57.312Z,0
2016-08-24T03:29:57.327Z,0
2016-08-24T03:30:57.366Z,0
2016-08-24T03:32:57.407Z,4
2016-08-24T03:33:57.441Z,4
2016-08-24T03:34:57.463Z,0
2016-08-24T03:35:57.489Z,0
2016-08-24T03:37:12.442Z,4
2016-08-24T03:37:57.541Z,0
2016-08-24T03:38:58.268Z,4
2016-08-24T03:39:57.591Z,4
2016-08-24T03:40:57.620Z,8
2016-08-24T03:41:57.650Z,8
2016-08-24T03:42:57.667Z,8
2016-08-24T03:43:57.705Z,8
2016-08-24T03:44:57.725Z,12
2016-08-24T03:46:57.778Z,12
2016-08-24T03:47:57.800Z,16
2016-08-24T03:48:57.831Z,20
2016-08-24T03:49:57.850Z,24
2016-08-24T03:50:57.879Z,24
2016-08-24T03:51:57.903Z,28
2016-08-24T03:53:12.856Z,36
2016-08-24T03:53:57.959Z,36
2016-08-24T03:54:57.986Z,40
2016-08-24T03:55:58.007Z,44
2016-08-24T03:56:58.088Z,52
2016-08-24T03:57:58.056Z,60
2016-08-24T04:00:13.030Z,88
2016-08-24T04:00:58.134Z,96
2016-08-24T04:01:58.163Z,108
2016-08-24T04:02:58.188Z,124
2016-08-24T04:03:58.212Z,136
2016-08-24T04:04:58.251Z,152
2016-08-24T04:05:58.315Z,164
2016-08-24T04:06:58.291Z,180
2016-08-24T04:07:58.322Z,196
2016-08-24T04:08:58.345Z,212
2016-08-24T04:09:58.365Z,228
2016-08-24T04:10:58.396Z,252
2016-08-24T04:12:13.345Z,280
2016-08-24T04:12:58.452Z,300
2016-08-24T04:14:13.394Z,344
2016-08-24T04:15:13.418Z,376
2016-08-24T04:16:13.444Z,412
2016-08-24T04:16:58.552Z,432
2016-08-24T04:17:58.583Z,464
2016-08-24T04:18:58.652Z,484
2016-08-24T04:19:58.628Z,516
2016-08-24T04:20:58.672Z,540
2016-08-24T04:21:58.680Z,580
2016-08-24T04:23:13.632Z,628
2016-08-24T04:23:58.728Z,648
2016-08-24T04:24:58.756Z,676
2016-08-24T04:25:58.792Z,696
2016-08-24T04:27:13.730Z,716
2016-08-24T04:27:58.836Z,728
2016-08-24T04:28:58.867Z,740
2016-08-24T04:30:13.809Z,748
2016-08-24T04:31:13.841Z,748
2016-08-24T04:32:13.863Z,764
2016-08-24T04:32:58.965Z,784
2016-08-24T04:33:58.986Z,816
2016-08-24T04:34:59.013Z,860
2016-08-24T04:35:59.034Z,900
2016-08-24T04:36:59.076Z,928
2016-08-24T04:37:59.089Z,948
2016-08-24T04:38:59.119Z,964
2016-08-24T04:39:59.145Z,992
2016-08-24T04:40:59.174Z,1024
2016-08-24T04:42:14.122Z,1060
2016-08-24T04:43:14.152Z,1076
2016-08-24T04:43:59.248Z,1080
2016-08-24T04:44:59.279Z,1088
2016-08-24T04:45:59.305Z,1084
2016-08-24T04:47:14.255Z,1088
2016-08-24T04:47:59.350Z,1092
2016-08-24T04:48:59.382Z,1096
2016-08-24T04:49:59.405Z,1108
2016-08-24T04:51:59.454Z,1128
2016-08-24T04:52:59.485Z,1132
2016-08-24T04:53:59.511Z,1140
2016-08-24T04:54:59.535Z,1144
2016-08-24T04:55:59.558Z,1172
2016-08-24T04:56:59.587Z,1208
2016-08-24T04:58:14.589Z,1272
2016-08-24T04:59:59.669Z,1360
2016-08-24T05:00:59.695Z,1384
2016-08-24T05:02:14.643Z,1388
2016-08-24T05:02:59.756Z,1384
2016-08-24T05:04:14.688Z,1388
2016-08-24T05:04:59.795Z,1400
2016-08-24T05:05:59.872Z,1424
2016-08-24T05:06:59.847Z,1456
2016-08-24T05:07:59.871Z,1484
2016-08-24T05:08:59.904Z,1524
2016-08-24T05:10:14.853Z,1592
2016-08-24T05:10:59.954Z,1640
2016-08-24T05:11:59.985Z,1712
2016-08-24T05:13:00.019Z,1776
2016-08-24T05:14:00.031Z,1836
2016-08-24T05:15:00.056Z,1892
2016-08-24T05:16:00.076Z,1956
2016-08-24T05:17:00.106Z,2036
2016-08-24T05:18:00.145Z,2132
2016-08-24T05:20:00.185Z,2340
2016-08-24T05:21:00.219Z,2436
2016-08-24T05:22:00.236Z,2516
2016-08-24T05:23:00.262Z,2576
2016-08-24T05:24:00.294Z,2620
2016-08-24T05:25:00.322Z,2652
2016-08-24T05:26:00.388Z,2676
2016-08-24T05:27:00.366Z,2676
2016-08-24T05:28:00.394Z,2636
2016-08-24T05:29:01.130Z,2576
2016-08-24T05:30:15.372Z,2520
2016-08-24T05:31:00.479Z,2508
2016-08-24T05:32:00.510Z,2496
2016-08-24T05:33:30.379Z,2504
2016-08-24T05:35:00.576Z,2552
2016-08-24T05:36:00.611Z,2624
2016-08-24T05:38:00.663Z,2868
2016-08-24T05:39:00.686Z,3036
2016-08-24T05:41:00.731Z,3348
2016-08-24T05:42:00.775Z,3472
2016-08-24T05:43:00.786Z,3544
2016-08-24T05:44:00.812Z,3572
2016-08-24T05:45:00.836Z,3624
2016-08-24T05:46:15.795Z,3732
2016-08-24T05:47:15.819Z,3876
2016-08-24T05:48:00.921Z,4020
2016-08-24T05:50:15.894Z,4576
2016-08-24T05:51:01.007Z,4784
2016-08-24T05:52:01.023Z,5084
2016-08-24T05:53:01.052Z,5380
2016-08-24T05:54:01.079Z,5696
2016-08-24T05:55:01.102Z,6052
2016-08-24T05:56:01.132Z,6456
2016-08-24T05:57:01.156Z,6904
2016-08-24T05:58:01.232Z,7364
2016-08-24T05:59:01.210Z,7824
2016-08-24T06:00:16.162Z,8516
2016-08-24T06:02:01.291Z,9600
2016-08-24T06:03:01.309Z,9956
2016-08-24T06:04:01.347Z,10204
2016-08-24T06:05:16.294Z,10316
2016-08-24T06:06:16.329Z,10152
2016-08-24T06:07:01.429Z,10004
2016-08-24T06:08:01.453Z,9824
2016-08-24T06:09:02.172Z,9688
2016-08-24T06:10:01.506Z,9772
2016-08-24T06:11:01.557Z,10052
2016-08-24T06:12:01.561Z,10456
2016-08-24T06:13:01.581Z,10876
2016-08-24T06:14:01.613Z,11296
2016-08-24T06:15:01.640Z,11752
2016-08-24T06:16:01.659Z,12240
2016-08-24T06:17:01.694Z,12756
2016-08-24T06:18:01.718Z,13272
2016-08-24T06:19:01.746Z,13744
2016-08-24T06:20:01.783Z,14376
2016-08-24T06:21:01.800Z,15336
2016-08-24T06:22:16.755Z,17728
2016-08-24T06:23:01.871Z,19392
2016-08-24T06:25:01.904Z,20960
2016-08-24T06:26:02.090Z,21504
2016-08-24T06:28:01.988Z,20320
2016-08-24T06:29:02.024Z,20448
2016-08-24T06:30:02.060Z,21408
2016-08-24T06:31:02.079Z,23328
2016-08-24T06:32:02.103Z,26912
2016-08-24T06:33:02.132Z,34880
2016-08-24T06:34:17.134Z,37792
2016-08-24T06:35:02.186Z,35936
2016-08-24T06:36:02.210Z,38944
2016-08-24T06:37:17.167Z,37728
2016-08-24T06:38:02.273Z,56704
2016-08-24T06:39:02.305Z,56352
2016-08-24T06:40:02.352Z,46944
2016-08-24T06:41:02.372Z,51040
2016-08-24T06:42:02.397Z,55488
2016-08-24T06:43:02.426Z,61888
2016-08-24T06:44:02.456Z,57440
2016-08-24T06:45:02.629Z,68576
2016-08-24T06:46:02.512Z,71808
2016-08-24T06:49:02.607Z,73472
2016-08-24T06:50:17.567Z,75360
2016-08-24T06:51:02.676Z,74720
2016-08-24T06:52:02.710Z,76448
2016-08-24T06:53:02.742Z,76160
2016-08-24T06:54:02.785Z,71360
2016-08-24T06:55:02.811Z,72128
2016-08-24T06:56:02.845Z,73888
2016-08-24T06:57:02.888Z,72576
2016-08-24T06:58:02.907Z,70624
2016-08-24T06:59:02.945Z,71168
2016-08-24T07:00:02.980Z,73280
2016-08-24T07:01:03.011Z,71808
2016-08-24T07:02:17.978Z,72256
2016-08-24T07:03:03.084Z,70432
2016-08-24T07:04:03.119Z,67200
2016-08-24T07:05:18.081Z,68480
2016-08-24T07:06:03.186Z,70112
2016-08-24T07:07:03.227Z,71008
2016-08-24T07:08:03.271Z,71552
2016-08-24T07:09:18.224Z,70848
2016-08-24T07:10:03.377Z,72768
2016-08-24T07:11:03.365Z,72096
2016-08-24T07:12:03.411Z,70400
2016-08-24T07:13:03.432Z,71072
2016-08-24T07:14:03.476Z,68256
2016-08-24T07:15:18.441Z,68352
2016-08-24T07:16:03.544Z,67520
2016-08-24T07:17:03.582Z,64480
2016-08-24T07:18:03.619Z,66080
2016-08-24T07:19:04.346Z,65504
2016-08-24T07:20:03.688Z,66496
2016-08-24T07:21:03.738Z,65984
2016-08-24T07:22:18.688Z,67776
2016-08-24T07:23:03.791Z,70912
2016-08-24T07:24:03.834Z,67936
2016-08-24T07:25:18.816Z,67104
2016-08-24T07:26:03.909Z,70304
2016-08-24T07:27:04.005Z,67040
2016-08-24T07:28:03.981Z,64832
2016-08-24T07:29:04.008Z,62112
2016-08-24T07:30:04.062Z,66720
2016-08-24T07:31:04.088Z,69664
2016-08-24T07:32:04.118Z,66176
2016-08-24T07:33:04.213Z,62816
2016-08-24T07:34:04.192Z,59552
2016-08-24T07:35:04.231Z,60960
2016-08-24T07:36:04.267Z,59520
2016-08-24T07:37:04.305Z,59776
2016-08-24T07:38:04.334Z,63808
2016-08-24T07:39:04.426Z,62944
2016-08-24T07:40:04.416Z,61440
2016-08-24T07:41:19.370Z,58944
2016-08-24T07:42:04.498Z,60256
2016-08-24T07:43:04.523Z,62144
2016-08-24T07:44:04.564Z,60288
2016-08-24T07:45:05.298Z,58784
2016-08-24T07:46:04.630Z,60832
2016-08-24T07:47:04.670Z,58144
2016-08-24T07:48:04.703Z,57600
2016-08-24T07:49:04.738Z,57152
2016-08-24T07:50:04.784Z,58688
2016-08-24T07:51:04.807Z,58176
2016-08-24T07:52:04.856Z,56416
2016-08-24T07:54:04.922Z,57472
2016-08-24T07:55:04.958Z,56544
2016-08-24T07:56:04.997Z,54784
2016-08-24T07:57:19.967Z,55616
2016-08-24T07:58:05.066Z,52992
2016-08-24T07:59:05.107Z,56224
2016-08-24T08:00:05.149Z,59296
2016-08-24T08:01:05.187Z,57568
2016-08-24T08:02:05.219Z,56512
2016-08-24T08:03:05.250Z,57088
2016-08-24T08:04:05.289Z,54848
2016-08-24T08:05:05.330Z,52768
2016-08-24T08:06:05.362Z,51136
2016-08-24T08:07:05.414Z,52960
2016-08-24T08:08:05.436Z,52608
2016-08-24T08:09:05.478Z,52672
2016-08-24T08:10:05.578Z,53152
2016-08-24T08:11:05.555Z,51072
2016-08-24T08:12:20.516Z,51104
2016-08-24T08:13:20.546Z,50560
2016-08-24T08:14:05.657Z,49120
2016-08-24T08:15:05.706Z,49440
2016-08-24T08:16:05.733Z,45216
2016-08-24T08:17:05.769Z,47264
2016-08-24T08:18:06.534Z,48960
2016-08-24T08:19:05.849Z,45856
2016-08-24T08:21:20.848Z,46176
2016-08-24T08:22:05.957Z,46400
2016-08-24T08:23:05.987Z,45600
2016-08-24T08:24:06.730Z,42592
2016-08-24T08:25:06.070Z,42432
2016-08-24T08:26:06.100Z,41536
2016-08-24T08:27:06.136Z,41568
2016-08-24T08:28:06.225Z,36160
2016-08-24T08:29:06.202Z,26048
2016-08-24T08:30:06.253Z,22880
2016-08-24T08:31:06.285Z,22656
2016-08-24T08:32:06.313Z,23040
2016-08-24T08:33:06.359Z,21728
2016-08-24T08:34:06.399Z,12316
2016-08-24T08:35:06.429Z,22528
2016-08-24T08:36:06.477Z,22816
2016-08-24T08:37:06.507Z,22784
2016-08-24T08:38:06.537Z,22848
2016-08-24T08:40:06.620Z,22656
2016-08-24T08:41:21.575Z,11060
2016-08-24T08:42:06.694Z,11604
2016-08-24T08:43:06.732Z,19232
2016-08-24T08:44:21.686Z,22880
2016-08-24T08:45:06.795Z,23296
2016-08-24T08:46:06.830Z,23136
2016-08-24T08:47:06.862Z,22656
2016-08-24T08:48:06.904Z,23200
2016-08-24T08:49:06.945Z,23424
2016-08-24T08:50:07.025Z,23360
2016-08-24T08:52:21.976Z,23136
2016-08-24T08:53:07.079Z,23360
2016-08-24T08:54:22.046Z,23808
2016-08-24T08:55:07.156Z,23776
2016-08-24T08:56:07.186Z,23392
2016-08-24T08:57:22.156Z,22304
2016-08-24T08:58:07.260Z,23360
2016-08-24T08:59:07.997Z,22976
2016-08-24T09:01:07.364Z,21536
2016-08-24T09:02:07.405Z,21184
2016-08-24T09:04:07.473Z,20960
2016-08-24T09:05:07.510Z,20576
2016-08-24T09:06:07.540Z,20224
2016-08-24T09:07:07.590Z,20512
2016-08-24T09:08:07.622Z,20480
2016-08-24T09:09:07.651Z,20160
2016-08-24T09:10:07.705Z,19904
2016-08-24T09:11:07.722Z,19776
2016-08-24T09:12:07.762Z,19680
2016-08-24T09:13:07.799Z,19584
2016-08-24T09:14:07.829Z,19424
2016-08-24T09:16:22.833Z,18848
2016-08-24T09:18:22.915Z,18656
2016-08-24T09:19:08.013Z,18656
2016-08-24T09:20:08.053Z,18848
2016-08-24T09:21:08.089Z,17888
2016-08-24T09:22:08.807Z,18112
2016-08-24T09:23:08.158Z,16160
2016-08-24T09:24:08.886Z,8824
2016-08-24T09:25:08.920Z,11984
2016-08-24T09:26:08.265Z,9088
2016-08-24T09:27:08.302Z,8508
2016-08-24T09:28:08.383Z,8608
2016-08-24T09:29:08.370Z,9696
2016-08-24T09:30:08.410Z,9744
2016-08-24T09:31:08.445Z,16552
2016-08-24T09:32:23.398Z,16436
2016-08-24T09:33:08.511Z,14800
2016-08-24T09:35:08.612Z,16484
2016-08-24T09:36:08.681Z,15840
2016-08-24T09:37:08.655Z,16024
2016-08-24T09:38:08.681Z,14584
2016-08-24T09:39:08.725Z,15548
2016-08-24T09:40:08.761Z,14076
2016-08-24T09:41:08.794Z,11588
2016-08-24T09:42:09.522Z,14448
2016-08-24T09:43:08.865Z,15264
2016-08-24T09:44:08.895Z,15684
2016-08-24T09:45:08.925Z,15648
2016-08-24T09:46:23.891Z,15636
2016-08-24T09:47:23.929Z,15576
2016-08-24T09:48:09.037Z,15656
2016-08-24T09:49:23.994Z,15832
2016-08-24T09:50:24.027Z,15624
2016-08-24T09:51:09.146Z,15516
2016-08-24T09:52:09.176Z,15512
2016-08-24T09:53:09.214Z,15624
2016-08-24T09:54:09.243Z,15628
2016-08-24T09:55:24.213Z,15460
2016-08-24T09:57:09.354Z,15088
2016-08-24T09:58:09.383Z,14760
2016-08-24T09:59:09.418Z,14496
2016-08-24T10:00:10.154Z,14180
2016-08-24T10:01:09.497Z,14184
2016-08-24T10:02:10.233Z,14088
2016-08-24T10:04:09.617Z,13492
2016-08-24T10:05:09.638Z,13080
2016-08-24T10:07:09.701Z,13520
2016-08-24T10:08:09.730Z,13496
2016-08-24T10:09:09.770Z,13356
2016-08-24T10:10:09.811Z,13276
2016-08-24T10:11:09.839Z,13292
2016-08-24T10:12:09.883Z,13272
2016-08-24T10:13:09.915Z,13012
2016-08-24T10:14:24.873Z,13064
2016-08-24T10:15:10.048Z,12956
2016-08-24T10:16:24.942Z,12788
2016-08-24T10:17:24.975Z,12788
2016-08-24T10:18:10.080Z,12752
2016-08-24T10:19:25.041Z,12772
2016-08-24T10:20:10.160Z,12764
2016-08-24T10:21:10.390Z,12764
2016-08-24T10:22:10.227Z,12636
2016-08-24T10:23:10.268Z,12480
2016-08-24T10:24:10.293Z,12356
2016-08-24T10:25:10.325Z,12192
2016-08-24T10:26:10.359Z,12160
2016-08-24T10:27:10.398Z,12236
2016-08-24T10:28:10.438Z,12260
2016-08-24T10:29:10.474Z,12120
2016-08-24T10:30:10.503Z,12104
2016-08-24T10:31:10.531Z,12096
2016-08-24T10:32:10.569Z,11964
2016-08-24T10:33:10.605Z,11920
2016-08-24T10:34:10.638Z,11788
2016-08-24T10:35:25.601Z,11804
2016-08-24T10:36:10.708Z,11860
2016-08-24T10:38:10.775Z,11608
2016-08-24T10:40:10.839Z,11412
2016-08-24T10:41:10.877Z,10640
2016-08-24T10:42:10.910Z,10456
2016-08-24T10:43:10.942Z,10884
2016-08-24T10:44:10.983Z,10856
2016-08-24T10:45:11.026Z,10684
2016-08-24T10:46:11.054Z,10788
2016-08-24T10:47:11.085Z,9852
2016-08-24T10:48:11.130Z,10480
2016-08-24T10:49:11.152Z,10480
2016-08-24T10:50:11.190Z,10584
2016-08-24T10:51:26.147Z,10544
2016-08-24T10:52:11.258Z,10520
2016-08-24T10:53:11.288Z,10656
2016-08-24T10:54:11.319Z,10612
2016-08-24T10:55:11.361Z,10368
2016-08-24T10:56:11.396Z,10164
2016-08-24T10:57:11.422Z,9796
2016-08-24T10:58:11.453Z,9452
2016-08-24T10:59:11.497Z,9144
2016-08-24T11:00:11.527Z,8888
2016-08-24T11:01:11.561Z,8680
2016-08-24T11:02:11.593Z,8432
2016-08-24T11:03:26.560Z,8100
2016-08-24T11:04:11.661Z,7916
2016-08-24T11:05:11.691Z,7708
2016-08-24T11:06:11.731Z,7532
2016-08-24T11:07:26.685Z,7316
2016-08-24T11:08:11.795Z,7148
2016-08-24T11:09:11.823Z,6984
2016-08-24T11:10:11.864Z,6872
2016-08-24T11:11:11.892Z,6728
2016-08-24T11:12:11.929Z,6636
2016-08-24T11:13:11.963Z,6512
2016-08-24T11:14:12.001Z,6340
2016-08-24T11:15:12.083Z,6232
2016-08-24T11:16:12.109Z,6112
2016-08-24T11:17:12.086Z,5984
2016-08-24T11:18:12.132Z,5968
2016-08-24T11:19:12.158Z,5936
2016-08-24T11:20:12.191Z,5828
2016-08-24T11:21:12.233Z,5796
2016-08-24T11:22:27.186Z,5768
2016-08-24T11:23:12.988Z,5692
2016-08-24T11:24:12.328Z,5140
2016-08-24T11:25:12.358Z,5608
2016-08-24T11:28:12.454Z,5608
2016-08-24T11:29:12.499Z,5528
2016-08-24T11:30:12.525Z,5488
2016-08-24T11:31:12.554Z,5444
2016-08-24T11:32:12.593Z,5452
2016-08-24T11:33:12.616Z,5384
2016-08-24T11:34:12.648Z,5388
2016-08-24T11:35:27.610Z,5388
2016-08-24T11:36:27.643Z,5352
2016-08-24T11:37:12.746Z,5336
2016-08-24T11:38:12.790Z,5260
2016-08-24T11:39:12.816Z,5144
2016-08-24T11:40:12.847Z,5104
2016-08-24T11:41:12.876Z,5068
2016-08-24T11:42:12.913Z,5024
2016-08-24T11:43:12.943Z,5016
2016-08-24T11:44:12.973Z,4964
2016-08-24T11:45:13.007Z,4936
2016-08-24T11:46:13.038Z,4924
2016-08-24T11:47:13.077Z,4940
2016-08-24T11:48:13.454Z,4940
2016-08-24T11:49:28.068Z,4932
2016-08-24T11:50:13.170Z,4920
2016-08-24T11:52:13.232Z,4856
2016-08-24T11:53:13.272Z,4820
2016-08-24T11:54:28.226Z,4852
2016-08-24T11:55:13.337Z,4828
2016-08-24T11:56:13.374Z,4836
2016-08-24T11:57:13.391Z,4844
2016-08-24T11:58:13.429Z,4832
2016-08-24T11:59:13.463Z,4852
2016-08-24T12:00:13.500Z,4856
2016-08-24T12:01:13.533Z,4816
2016-08-24T12:02:13.561Z,4844
2016-08-24T12:03:13.592Z,4840
2016-08-24T12:04:13.635Z,4852
2016-08-24T12:05:13.659Z,4864
2016-08-24T12:06:13.691Z,4860
2016-08-24T12:07:13.742Z,4868
2016-08-24T12:08:13.767Z,4872
2016-08-24T12:09:13.931Z,4880
2016-08-24T12:10:28.746Z,4896
2016-08-24T12:11:13.852Z,4896
2016-08-24T12:12:13.886Z,4892
2016-08-24T12:13:13.923Z,4888
2016-08-24T12:14:13.945Z,4892
2016-08-24T12:15:14.680Z,4920
2016-08-24T12:16:14.010Z,4956
2016-08-24T12:17:14.045Z,4976
2016-08-24T12:18:14.128Z,4948
2016-08-24T12:19:29.038Z,4944
2016-08-24T12:20:14.145Z,4944
2016-08-24T12:21:14.175Z,4928
2016-08-24T12:23:29.169Z,4976
2016-08-24T12:24:14.273Z,4996
2016-08-24T12:25:14.306Z,4992
2016-08-24T12:26:29.257Z,4968
2016-08-24T12:27:14.375Z,4916
2016-08-24T12:29:14.431Z,4992
2016-08-24T12:30:14.461Z,5028
2016-08-24T12:31:14.493Z,5036
2016-08-24T12:32:14.529Z,5040
2016-08-24T12:33:14.559Z,5068
2016-08-24T12:34:14.589Z,5060
2016-08-24T12:35:14.624Z,5084
2016-08-24T12:36:14.661Z,5084
2016-08-24T12:37:14.687Z,5084
2016-08-24T12:38:14.716Z,5096
2016-08-24T12:39:14.752Z,5092
2016-08-24T12:40:14.783Z,5088
2016-08-24T12:41:29.740Z,5068
2016-08-24T12:42:29.771Z,5084
2016-08-24T12:43:14.880Z,5100
2016-08-24T12:44:15.599Z,5120
2016-08-24T12:45:15.640Z,5124
2016-08-24T12:46:14.987Z,5116
2016-08-24T12:47:15.018Z,5128
2016-08-24T12:48:15.033Z,5136
2016-08-24T12:49:15.070Z,5140
2016-08-24T12:50:15.100Z,5128
2016-08-24T12:51:30.111Z,5140
2016-08-24T12:52:15.174Z,5156
2016-08-24T12:53:15.199Z,5172
2016-08-24T12:54:15.224Z,5176
2016-08-24T12:55:30.186Z,5160
2016-08-24T12:56:15.291Z,5164
2016-08-24T12:57:30.257Z,5168
2016-08-24T12:59:15.385Z,5152
2016-08-24T13:00:15.419Z,5112
2016-08-24T13:01:15.449Z,5116
2016-08-24T13:02:15.481Z,5084
2016-08-24T13:03:15.515Z,5092
2016-08-24T13:04:15.550Z,5144
2016-08-24T13:05:15.580Z,5148
2016-08-24T13:07:15.647Z,5176
2016-08-24T13:08:15.676Z,5160
2016-08-24T13:09:15.716Z,5188
2016-08-24T13:10:15.737Z,5216
2016-08-24T13:11:15.772Z,5216
2016-08-24T13:12:30.729Z,5216
2016-08-24T13:13:15.838Z,5236
2016-08-24T13:14:15.869Z,5232
2016-08-24T13:15:15.898Z,5200
2016-08-24T13:16:15.928Z,5224
2016-08-24T13:18:15.996Z,5268
2016-08-24T13:19:16.026Z,5220
2016-08-24T13:20:16.062Z,5248
2016-08-24T13:21:16.095Z,5252
2016-08-24T13:22:31.052Z,5244
2016-08-24T13:23:16.155Z,5240
2016-08-24T13:24:31.115Z,5260
2016-08-24T13:25:16.216Z,5268
2016-08-24T13:26:31.176Z,5276
2016-08-24T13:27:16.998Z,5272
2016-08-24T13:29:31.277Z,5288
2016-08-24T13:30:16.388Z,5288
2016-08-24T13:31:16.404Z,5288
2016-08-24T13:32:16.440Z,5288
2016-08-24T13:33:16.519Z,5280
2016-08-24T13:35:16.548Z,5296
2016-08-24T13:36:16.576Z,5288
2016-08-24T13:37:16.603Z,5280
2016-08-24T13:38:16.630Z,5300
2016-08-24T13:39:17.377Z,5308
2016-08-24T13:40:16.697Z,5312
2016-08-24T13:41:16.726Z,5300
2016-08-24T13:42:16.788Z,5276
2016-08-24T13:43:31.714Z,5264
2016-08-24T13:44:16.813Z,5292
2016-08-24T13:45:31.792Z,5280
2016-08-24T13:46:16.893Z,5260
2016-08-24T13:47:16.910Z,5268
2016-08-24T13:48:16.943Z,5300
2016-08-24T13:49:31.914Z,5280
2016-08-24T13:50:17.009Z,5288
2016-08-24T13:51:17.049Z,5288
2016-08-24T13:52:17.071Z,5308
2016-08-24T13:53:17.112Z,5300
2016-08-24T13:54:17.143Z,5320
2016-08-24T13:55:17.198Z,5320
2016-08-24T13:56:17.208Z,5292
2016-08-24T13:57:17.236Z,5276
2016-08-24T13:58:17.322Z,5292
2016-08-24T13:59:17.350Z,5288
2016-08-24T14:00:17.330Z,5276
2016-08-24T14:01:32.284Z,5300
2016-08-24T14:02:17.387Z,5272
2016-08-24T14:04:32.375Z,5256
2016-08-24T14:05:18.182Z,5268
2016-08-24T14:06:17.523Z,5280
2016-08-24T14:07:17.549Z,5296
2016-08-24T14:08:17.585Z,5280
2016-08-24T14:09:17.611Z,5284
2016-08-24T14:10:17.648Z,5300
2016-08-24T14:11:17.684Z,5280
2016-08-24T14:12:17.715Z,5268
2016-08-24T14:13:32.668Z,5280
2016-08-24T14:14:17.774Z,5288
2016-08-24T14:15:17.806Z,5276
2016-08-24T14:16:17.839Z,5276
2016-08-24T14:17:32.797Z,5280
2016-08-24T14:18:17.902Z,5284
2016-08-24T14:19:17.932Z,5256
2016-08-24T14:20:17.966Z,5248
2016-08-24T14:21:17.988Z,5244
2016-08-24T14:22:18.027Z,5272
2016-08-24T14:23:18.061Z,5268
2016-08-24T14:24:18.084Z,5272
2016-08-24T14:25:33.050Z,5280
2016-08-24T14:26:33.082Z,5268
2016-08-24T14:27:18.190Z,5268